Morgantown, WV

7:47 PM EDT on March 26, 2015 (GMT -0400)
Benedum | | Change Station
CLOSE
Current Station
Airport
Location: Clarksburg,
Elevation: 1204 ft
Nearby Weather Stations

Elev 1204 ft 39.30 °N, 80.23 °W | Updated 7 minutes ago

Overcast
Overcast
44 °F
Feels Like 40 °F
N
7
Wind Variable Wind from NNW

Today
High -- | Low -- °F
--% Chance of Precip.
Yesterday
High -- | Low -- °F
Precip. -- in
7:14 AM 7:38 PM
Waxing Crescent, 47% visible
Pressure 29.83 in
Visibility 9.0 miles
Clouds Few 800 ft
Overcast 1900 ft
Windchill 40 °F
Dew Point 42 °F
Humidity 93%
Rainfall 0.16 in
Snow Depth Not available.
UV 0 out of 12
Pollen 8.00 out of 12
Air Quality Not available.
Flu Activity Not available.
SPECI KCKB 262340Z 34006KT 9SM -RA BR FEW008 OVC019 07/06 A2983 RMK AO2 RAB05 P0000 T00670056

More Conditions Fewer Conditions

Pressure 29.83 in
Visibility 9.0 miles
Clouds Few 800 ft
Overcast 1900 ft
Windchill 40 °F
Dew Point 42 °F
Humidity 93%
Rainfall 0.16 in
Snow Depth Not available.
UV 0 out of 12
Pollen 8.00 out of 12
Air Quality Not available.
Flu Activity Not available.
SPECI KCKB 262340Z 34006KT 9SM -RA BR FEW008 OVC019 07/06 A2983 RMK AO2 RAB05 P0000 T00670056

More Conditions Fewer Conditions

10-Day Weather Forecast

Almanac

Astronomy

Mar. 26, 2015 Rise Set
Actual Time
Civil Twilight
Nautical Twilight
Astronomical Twilight
Moon
Length of Visible Light
Length of Day
Tomorrow will be .
, % of the Moon is Illuminated

Today's Extremes

State Highs State Lows

Community

WunderPhotos

Upload Photos

1,808,643 photos uploaded!

WunderBlogs® & News

Nearby

Air Quality

  Air Quality AQ Index Pollutant
Not available.

Snow Depth

Station Depth Elevation

Earthquake Activity

City Distance Mag. Time & Date
Minimum magnitude displayed is 2.5.

Coastal Water Temperatures

Place Temperature

Stations

Nearby Weather Stations

Station Location Temp. Windchill Dew Point Humidity Wind Precip. Elev Updated Type